PWSweather.com
Personal Weather Stations
Station Observations
BURKEWX
Burke, VA

Burke, VA

Lat: 38.796, Lon: -77.256

Elevation: 308

Station Type: LaCrosse WS2308

High Low Average
Temperature 48.9°F9.4°C 31.6°F-0.2°C 39.4°F4.1°C
Dew Point 19.1°F-7.2°C 11.6°F-11.3°C 16.3°F-8.7°C
Winds 7.3 mph 11.7 kmh Calm Calm 2.0 mph SSW3.2 kmh SSW
Wind Gusts 13.6 mph21.9 kmh -- 6.0 mph9.7 kmh
Humidity 52% 26% 40%
Pressure 30.26 in1024.7 mb 30.06 in1017.9 mb -
Precipitation 0.00 in0.0 mm - -
Hour Temp Dew Point Humidity Winds Wind Gusts Pressure Precip Precip Rate Daily Precip Total
12:00 AM 40.8°F4.9°C 18.3°F-7.6°C 40% 2.9 mph NW4.7 kmh NW 2.9 mph4.7 kmh 30.05 in1017.6 mb 0.00 in0.0 mm 0.00 in/hr0.0 mm/hr 0.00 in0.0 mm
12:05 AM 40.6°F4.8°C 18.7°F-7.4°C 41% Calm Calm 2.9 mph4.7 kmh 30.05 in1017.6 mb 0.00 in0.0 mm 0.00 in/hr0.0 mm/hr 0.00 in0.0 mm
12:10 AM 40.3°F4.6°C 18.4°F-7.6°C 41% 1.9 mph NNW3.1 kmh NNW 3.4 mph5.5 kmh 30.05 in1017.6 mb 0.00 in0.0 mm 0.00 in/hr0.0 mm/hr 0.00 in0.0 mm
12:15 AM 40.1°F4.5°C 18.2°F-7.7°C 41% 2.5 mph NNW4.0 kmh NNW 3.4 mph5.5 kmh 30.05 in1017.6 mb 0.00 in0.0 mm 0.00 in/hr0.0 mm/hr 0.00 in0.0 mm
12:20 AM 39.9°F4.4°C 18.6°F-7.4°C 42% 2.4 mph NW3.9 kmh NW 2.7 mph4.3 kmh 30.05 in1017.6 mb 0.00 in0.0 mm 0.00 in/hr0.0 mm/hr 0.00 in0.0 mm
12:25 AM 39.9°F4.4°C 18.6°F-7.4°C 42% 2.9 mph NW4.7 kmh NW 4.0 mph6.4 kmh 30.06 in1017.9 mb 0.00 in0.0 mm 0.00 in/hr0.0 mm/hr 0.00 in0.0 mm
12:30 AM 39.9°F4.4°C 18.6°F-7.4°C 42% 2.6 mph WNW4.2 kmh WNW 5.6 mph9.0 kmh 30.05 in1017.6 mb 0.00 in0.0 mm 0.00 in/hr0.0 mm/hr 0.00 in0.0 mm
12:35 AM 39.9°F4.4°C 18.6°F-7.4°C 42% 2.7 mph NW4.3 kmh NW 5.6 mph9.0 kmh 30.06 in1017.9 mb 0.00 in0.0 mm 0.00 in/hr0.0 mm/hr 0.00 in0.0 mm
12:40 AM 39.9°F4.4°C 18.6°F-7.4°C 42% 4.0 mph N6.4 kmh N 5.1 mph8.2 kmh 30.06 in1017.9 mb 0.00 in0.0 mm 0.00 in/hr0.0 mm/hr 0.00 in0.0 mm
12:45 AM 39.9°F4.4°C 18.6°F-7.4°C 42% 2.6 mph NE4.2 kmh NE 5.1 mph8.2 kmh 30.06 in1017.9 mb 0.00 in0.0 mm 0.00 in/hr0.0 mm/hr 0.00 in0.0 mm
12:50 AM 39.7°F4.3°C 18.4°F-7.6°C 42% 1.8 mph NE2.9 kmh NE 3.6 mph5.8 kmh 30.06 in1017.9 mb 0.00 in0.0 mm 0.00 in/hr0.0 mm/hr 0.00 in0.0 mm
12:55 AM 39.6°F4.2°C 18.2°F-7.7°C 42% 2.2 mph NW3.5 kmh NW 2.9 mph4.7 kmh 30.06 in1017.9 mb 0.00 in0.0 mm 0.00 in/hr0.0 mm/hr 0.00 in0.0 mm
01:00 AM 39.4°F4.1°C 18.6°F-7.4°C 43% Calm Calm 4.7 mph7.6 kmh 30.06 in1017.9 mb 0.00 in0.0 mm 0.00 in/hr0.0 mm/hr 0.00 in0.0 mm
01:05 AM 39.0°F3.9°C 18.3°F-7.6°C 43% 2.1 mph N3.4 kmh N 4.7 mph7.6 kmh 30.06 in1017.9 mb 0.00 in0.0 mm 0.00 in/hr0.0 mm/hr 0.00 in0.0 mm
01:10 AM 39.0°F3.9°C 18.3°F-7.6°C 43% 2.6 mph N4.2 kmh N 4.5 mph7.2 kmh 30.06 in1017.9 mb 0.00 in0.0 mm 0.00 in/hr0.0 mm/hr 0.00 in0.0 mm
01:15 AM 39.0°F3.9°C 18.3°F-7.6°C 43% 1.5 mph NW2.4 kmh NW 4.5 mph7.2 kmh 30.07 in1018.3 mb 0.00 in0.0 mm 0.00 in/hr0.0 mm/hr 0.00 in0.0 mm
01:20 AM 38.8°F3.8°C 18.1°F-7.7°C 43% 1.9 mph N3.1 kmh N 3.4 mph5.5 kmh 30.07 in1018.3 mb 0.00 in0.0 mm 0.00 in/hr0.0 mm/hr 0.00 in0.0 mm
01:25 AM 38.8°F3.8°C 18.1°F-7.7°C 43% 1.6 mph NNW2.6 kmh NNW 4.0 mph6.4 kmh 30.07 in1018.3 mb 0.00 in0.0 mm 0.00 in/hr0.0 mm/hr 0.00 in0.0 mm
01:30 AM 38.8°F3.8°C 18.1°F-7.7°C 43% 1.6 mph NNW2.6 kmh NNW 4.0 mph6.4 kmh 30.07 in1018.3 mb 0.00 in0.0 mm 0.00 in/hr0.0 mm/hr 0.00 in0.0 mm
01:35 AM 38.5°F3.6°C 17.8°F-7.9°C 43% 2.9 mph N4.7 kmh N 5.1 mph8.2 kmh 30.08 in1018.6 mb 0.00 in0.0 mm 0.00 in/hr0.0 mm/hr 0.00 in0.0 mm
01:40 AM 38.5°F3.6°C 17.8°F-7.9°C 43% 2.9 mph N4.7 kmh N 5.1 mph8.2 kmh 30.08 in1018.6 mb 0.00 in0.0 mm 0.00 in/hr0.0 mm/hr 0.00 in0.0 mm
01:45 AM 38.5°F3.6°C 17.8°F-7.9°C 43% Calm Calm 4.3 mph6.9 kmh 30.08 in1018.6 mb 0.00 in0.0 mm 0.00 in/hr0.0 mm/hr 0.00 in0.0 mm
01:50 AM 38.1°F3.4°C 17.5°F-8.1°C 43% 1.1 mph WNW1.8 kmh WNW 4.0 mph6.4 kmh 30.08 in1018.6 mb 0.00 in0.0 mm 0.00 in/hr0.0 mm/hr 0.00 in0.0 mm
01:55 AM 37.9°F3.3°C 17.3°F-8.2°C 43% 1.5 mph NNW2.4 kmh NNW 1.8 mph2.9 kmh 30.08 in1018.6 mb 0.00 in0.0 mm 0.00 in/hr0.0 mm/hr 0.00 in0.0 mm
02:00 AM 37.8°F3.2°C 17.7°F-7.9°C 44% Calm Calm 1.8 mph2.9 kmh 30.08 in1018.6 mb 0.00 in0.0 mm 0.00 in/hr0.0 mm/hr 0.00 in0.0 mm
02:05 AM 37.8°F3.2°C 17.7°F-7.9°C 44% 1.8 mph 2.9 kmh 2.9 mph4.7 kmh 30.08 in1018.6 mb 0.00 in0.0 mm 0.00 in/hr0.0 mm/hr 0.00 in0.0 mm
02:10 AM 37.8°F3.2°C 17.7°F-7.9°C 44% Calm Calm 2.9 mph4.7 kmh 30.08 in1018.6 mb 0.00 in0.0 mm 0.00 in/hr0.0 mm/hr 0.00 in0.0 mm
02:15 AM 37.6°F3.1°C 17.5°F-8.1°C 44% Calm Calm 2.2 mph3.5 kmh 30.08 in1018.6 mb 0.00 in0.0 mm 0.00 in/hr0.0 mm/hr 0.00 in0.0 mm
02:20 AM 37.2°F2.9°C 17.7°F-7.9°C 45% 2.4 mph NNW3.9 kmh NNW 3.1 mph5.0 kmh 30.08 in1018.6 mb 0.00 in0.0 mm 0.00 in/hr0.0 mm/hr 0.00 in0.0 mm
02:25 AM 37.2°F2.9°C 17.7°F-7.9°C 45% Calm Calm 3.1 mph5.0 kmh 30.08 in1018.6 mb 0.00 in0.0 mm 0.00 in/hr0.0 mm/hr 0.00 in0.0 mm
02:30 AM 37.0°F2.8°C 17.5°F-8.1°C 45% Calm Calm 2.5 mph4.0 kmh 30.09 in1019.0 mb 0.00 in0.0 mm 0.00 in/hr0.0 mm/hr 0.00 in0.0 mm
02:35 AM 37.0°F2.8°C 17.5°F-8.1°C 45% 3.4 mph NNW5.5 kmh NNW 6.9 mph11.1 kmh 30.09 in1019.0 mb 0.00 in0.0 mm 0.00 in/hr0.0 mm/hr 0.00 in0.0 mm
02:40 AM 37.0°F2.8°C 17.5°F-8.1°C 45% 1.6 mph NNW2.6 kmh NNW 6.9 mph11.1 kmh 30.08 in1018.6 mb 0.00 in0.0 mm 0.00 in/hr0.0 mm/hr 0.00 in0.0 mm
02:45 AM 36.7°F2.6°C 17.7°F-7.9°C 46% Calm Calm 1.6 mph2.6 kmh 30.09 in1019.0 mb 0.00 in0.0 mm 0.00 in/hr0.0 mm/hr 0.00 in0.0 mm
02:50 AM 36.5°F2.5°C 17.6°F-8.0°C 46% Calm Calm 0.7 mph1.1 kmh 30.09 in1019.0 mb 0.00 in0.0 mm 0.00 in/hr0.0 mm/hr 0.00 in0.0 mm
02:55 AM 36.5°F2.5°C 17.6°F-8.0°C 46% Calm Calm 3.6 mph5.8 kmh 30.09 in1019.0 mb 0.00 in0.0 mm 0.00 in/hr0.0 mm/hr 0.00 in0.0 mm
03:00 AM 36.3°F2.4°C 17.9°F-7.8°C 47% 1.3 mph 2.1 kmh 3.6 mph5.8 kmh 30.09 in1019.0 mb 0.00 in0.0 mm 0.00 in/hr0.0 mm/hr 0.00 in0.0 mm
03:05 AM 36.0°F2.2°C 17.6°F-8.0°C 47% Calm Calm 1.3 mph2.1 kmh 30.09 in1019.0 mb 0.00 in0.0 mm 0.00 in/hr0.0 mm/hr 0.00 in0.0 mm
03:10 AM 35.8°F2.1°C 18.0°F-7.8°C 48% Calm Calm 3.8 mph6.1 kmh 30.09 in1019.0 mb 0.00 in0.0 mm 0.00 in/hr0.0 mm/hr 0.00 in0.0 mm
03:15 AM 35.4°F1.9°C 17.6°F-8.0°C 48% 0.7 mph 1.1 kmh 4.5 mph7.2 kmh 30.09 in1019.0 mb 0.00 in0.0 mm 0.00 in/hr0.0 mm/hr 0.00 in0.0 mm
03:20 AM 35.2°F1.8°C 17.5°F-8.1°C 48% 2.6 mph N4.2 kmh N 4.5 mph7.2 kmh 30.09 in1019.0 mb 0.00 in0.0 mm 0.00 in/hr0.0 mm/hr 0.00 in0.0 mm
03:25 AM 35.4°F1.9°C 17.6°F-8.0°C 48% 2.4 mph NW3.9 kmh NW 4.5 mph7.2 kmh 30.09 in1019.0 mb 0.00 in0.0 mm 0.00 in/hr0.0 mm/hr 0.00 in0.0 mm
03:30 AM 35.8°F2.1°C 17.5°F-8.1°C 47% 2.2 mph NW3.5 kmh NW 4.5 mph7.2 kmh 30.09 in1019.0 mb 0.00 in0.0 mm 0.00 in/hr0.0 mm/hr 0.00 in0.0 mm
03:35 AM 35.8°F2.1°C 16.9°F-8.4°C 46% Calm Calm 3.4 mph5.5 kmh 30.09 in1019.0 mb 0.00 in0.0 mm 0.00 in/hr0.0 mm/hr 0.00 in0.0 mm
03:40 AM 35.8°F2.1°C 16.9°F-8.4°C 46% 1.8 mph NE2.9 kmh NE 3.4 mph5.5 kmh 30.09 in1019.0 mb 0.00 in0.0 mm 0.00 in/hr0.0 mm/hr 0.00 in0.0 mm
03:45 AM 35.4°F1.9°C 16.6°F-8.6°C 46% 2.9 mph NE4.7 kmh NE 3.6 mph5.8 kmh 30.09 in1019.0 mb 0.00 in0.0 mm 0.00 in/hr0.0 mm/hr 0.00 in0.0 mm
03:50 AM 35.2°F1.8°C 16.4°F-8.7°C 46% Calm Calm 3.6 mph5.8 kmh 30.09 in1019.0 mb 0.00 in0.0 mm 0.00 in/hr0.0 mm/hr 0.00 in0.0 mm
03:55 AM 35.2°F1.8°C 16.9°F-8.4°C 47% 1.8 mph NNW2.9 kmh NNW 3.6 mph5.8 kmh 30.09 in1019.0 mb 0.00 in0.0 mm 0.00 in/hr0.0 mm/hr 0.00 in0.0 mm
04:01 AM 35.2°F1.8°C 16.4°F-8.7°C 46% 1.6 mph NNW2.6 kmh NNW 2.2 mph3.5 kmh 30.09 in1019.0 mb 0.00 in0.0 mm 0.00 in/hr0.0 mm/hr 0.00 in0.0 mm
04:05 AM 34.9°F1.6°C 16.1°F-8.8°C 46% 1.5 mph NW2.4 kmh NW 2.5 mph4.0 kmh 30.09 in1019.0 mb 0.00 in0.0 mm 0.00 in/hr0.0 mm/hr 0.00 in0.0 mm
04:10 AM 34.9°F1.6°C 16.6°F-8.6°C 47% 1.6 mph NNW2.6 kmh NNW 2.9 mph4.7 kmh 30.09 in1019.0 mb 0.00 in0.0 mm 0.00 in/hr0.0 mm/hr 0.00 in0.0 mm
04:15 AM 34.7°F1.5°C 16.4°F-8.7°C 47% 0.7 mph NW1.1 kmh NW 2.9 mph4.7 kmh 30.09 in1019.0 mb 0.00 in0.0 mm 0.00 in/hr0.0 mm/hr 0.00 in0.0 mm
04:21 AM 34.5°F1.4°C 16.2°F-8.8°C 47% Calm Calm 0.7 mph1.1 kmh 30.09 in1019.0 mb 0.00 in0.0 mm 0.00 in/hr0.0 mm/hr 0.00 in0.0 mm
04:26 AM 34.3°F1.3°C 16.1°F-8.8°C 47% Calm Calm -- 30.09 in1019.0 mb 0.00 in0.0 mm 0.00 in/hr0.0 mm/hr 0.00 in0.0 mm
04:31 AM 34.3°F1.3°C 16.1°F-8.8°C 47% 1.1 mph 1.8 kmh 3.1 mph5.0 kmh 30.10 in1019.3 mb 0.00 in0.0 mm 0.00 in/hr0.0 mm/hr 0.00 in0.0 mm
04:36 AM 34.2°F1.2°C 15.9°F-8.9°C 47% Calm Calm 3.1 mph5.0 kmh 30.10 in1019.3 mb 0.00 in0.0 mm 0.00 in/hr0.0 mm/hr 0.00 in0.0 mm
04:40 AM 34.0°F1.1°C 16.2°F-8.8°C 48% Calm Calm -- 30.10 in1019.3 mb 0.00 in0.0 mm 0.00 in/hr0.0 mm/hr 0.00 in0.0 mm
04:45 AM 33.6°F0.9°C 15.9°F-8.9°C 48% 2.0 mph 3.2 kmh 2.7 mph4.3 kmh 30.09 in1019.0 mb 0.00 in0.0 mm 0.00 in/hr0.0 mm/hr 0.00 in0.0 mm
04:51 AM 33.6°F0.9°C 15.9°F-8.9°C 48% 2.6 mph NW4.2 kmh NW 2.9 mph4.7 kmh 30.10 in1019.3 mb 0.00 in0.0 mm 0.00 in/hr0.0 mm/hr 0.00 in0.0 mm
04:56 AM 33.4°F0.8°C 16.2°F-8.8°C 49% 2.7 mph NW4.3 kmh NW 3.8 mph6.1 kmh 30.10 in1019.3 mb 0.00 in0.0 mm 0.00 in/hr0.0 mm/hr 0.00 in0.0 mm
05:00 AM 33.4°F0.8°C 16.2°F-8.8°C 49% 2.2 mph NNW3.5 kmh NNW 3.8 mph6.1 kmh 30.10 in1019.3 mb 0.00 in0.0 mm 0.00 in/hr0.0 mm/hr 0.00 in0.0 mm
05:06 AM 33.4°F0.8°C 16.2°F-8.8°C 49% 2.7 mph NW4.3 kmh NW 4.7 mph7.6 kmh 30.10 in1019.3 mb 0.00 in0.0 mm 0.00 in/hr0.0 mm/hr 0.00 in0.0 mm
05:10 AM 33.6°F0.9°C 15.9°F-8.9°C 48% 1.9 mph NNW3.1 kmh NNW 4.7 mph7.6 kmh 30.11 in1019.6 mb 0.00 in0.0 mm 0.00 in/hr0.0 mm/hr 0.00 in0.0 mm
05:16 AM 33.6°F0.9°C 15.9°F-8.9°C 48% 2.2 mph N3.5 kmh N 4.5 mph7.2 kmh 30.11 in1019.6 mb 0.00 in0.0 mm 0.00 in/hr0.0 mm/hr 0.00 in0.0 mm
05:20 AM 33.6°F0.9°C 15.9°F-8.9°C 48% 1.2 mph N1.9 kmh N 4.5 mph7.2 kmh 30.11 in1019.6 mb 0.00 in0.0 mm 0.00 in/hr0.0 mm/hr 0.00 in0.0 mm
05:26 AM 33.6°F0.9°C 15.9°F-8.9°C 48% 3.1 mph NW5.0 kmh NW 3.1 mph5.0 kmh 30.11 in1019.6 mb 0.00 in0.0 mm 0.00 in/hr0.0 mm/hr 0.00 in0.0 mm
05:31 AM 33.4°F0.8°C 15.7°F-9.1°C 48% 1.6 mph 2.6 kmh 3.8 mph6.1 kmh 30.11 in1019.6 mb 0.00 in0.0 mm 0.00 in/hr0.0 mm/hr 0.00 in0.0 mm
05:35 AM 33.6°F0.9°C 15.4°F-9.2°C 47% 1.6 mph NNW2.6 kmh NNW 3.8 mph6.1 kmh 30.12 in1020.0 mb 0.00 in0.0 mm 0.00 in/hr0.0 mm/hr 0.00 in0.0 mm
05:41 AM 33.4°F0.8°C 15.7°F-9.1°C 48% Calm Calm 2.7 mph4.3 kmh 30.12 in1020.0 mb 0.00 in0.0 mm 0.00 in/hr0.0 mm/hr 0.00 in0.0 mm
05:45 AM 33.3°F0.7°C 15.6°F-9.1°C 48% 2.6 mph N4.2 kmh N 4.5 mph7.2 kmh 30.13 in1020.3 mb 0.00 in0.0 mm 0.00 in/hr0.0 mm/hr 0.00 in0.0 mm
05:51 AM 33.3°F0.7°C 15.6°F-9.1°C 48% 3.5 mph NNE5.6 kmh NNE 4.7 mph7.6 kmh 30.13 in1020.3 mb 0.00 in0.0 mm 0.00 in/hr0.0 mm/hr 0.00 in0.0 mm
05:56 AM 33.4°F0.8°C 15.7°F-9.1°C 48% 3.2 mph 5.1 kmh 5.1 mph8.2 kmh 30.13 in1020.3 mb 0.00 in0.0 mm 0.00 in/hr0.0 mm/hr 0.00 in0.0 mm
06:01 AM 33.1°F0.6°C 15.6°F-9.1°C 48% 3.5 mph W5.6 kmh W 5.1 mph8.2 kmh 30.13 in1020.3 mb 0.00 in0.0 mm 0.00 in/hr0.0 mm/hr 0.00 in0.0 mm
06:06 AM 33.1°F0.6°C 15.4°F-9.2°C 48% 2.8 mph NW4.5 kmh NW 4.7 mph7.6 kmh 30.14 in1020.7 mb 0.00 in0.0 mm 0.00 in/hr0.0 mm/hr 0.00 in0.0 mm
06:11 AM 33.1°F0.6°C 15.9°F-8.9°C 49% 2.4 mph NW3.9 kmh NW 3.8 mph6.1 kmh 30.14 in1020.7 mb 0.00 in0.0 mm 0.00 in/hr0.0 mm/hr 0.00 in0.0 mm
06:15 AM 32.9°F0.5°C 15.7°F-9.1°C 49% 1.9 mph NW3.1 kmh NW 2.9 mph4.7 kmh 30.14 in1020.7 mb 0.00 in0.0 mm 0.00 in/hr0.0 mm/hr 0.00 in0.0 mm
06:21 AM 32.7°F0.4°C 15.6°F-9.1°C 49% 3.5 mph NW5.6 kmh NW 6.0 mph9.7 kmh 30.14 in1020.7 mb 0.00 in0.0 mm 0.00 in/hr0.0 mm/hr 0.00 in0.0 mm
06:26 AM 32.7°F0.4°C 15.6°F-9.1°C 49% 2.3 mph NW3.7 kmh NW 6.0 mph9.7 kmh 30.14 in1020.7 mb 0.00 in0.0 mm 0.00 in/hr0.0 mm/hr 0.00 in0.0 mm
06:31 AM 32.7°F0.4°C 16.1°F-8.8°C 50% 2.4 mph NW3.9 kmh NW 4.3 mph6.9 kmh 30.14 in1020.7 mb 0.00 in0.0 mm 0.00 in/hr0.0 mm/hr 0.00 in0.0 mm
06:36 AM 32.7°F0.4°C 16.1°F-8.8°C 50% 2.5 mph NW4.0 kmh NW 7.2 mph11.6 kmh 30.14 in1020.7 mb 0.00 in0.0 mm 0.00 in/hr0.0 mm/hr 0.00 in0.0 mm
06:41 AM 32.7°F0.4°C 15.6°F-9.1°C 49% 3.7 mph NW6.0 kmh NW 7.2 mph11.6 kmh 30.14 in1020.7 mb 0.00 in0.0 mm 0.00 in/hr0.0 mm/hr 0.00 in0.0 mm
06:46 AM 32.7°F0.4°C 16.1°F-8.8°C 50% 2.0 mph NW3.2 kmh NW 7.2 mph11.6 kmh 30.15 in1021.0 mb 0.00 in0.0 mm 0.00 in/hr0.0 mm/hr 0.00 in0.0 mm
06:51 AM 32.7°F0.4°C 16.1°F-8.8°C 50% 0.9 mph 1.4 kmh 4.0 mph6.4 kmh 30.15 in1021.0 mb 0.00 in0.0 mm 0.00 in/hr0.0 mm/hr 0.00 in0.0 mm
06:56 AM 32.5°F0.3°C 15.9°F-8.9°C 50% 1.8 mph 2.9 kmh 3.6 mph5.8 kmh 30.15 in1021.0 mb 0.00 in0.0 mm 0.00 in/hr0.0 mm/hr 0.00 in0.0 mm
07:00 AM 32.4°F0.2°C 15.8°F-9.0°C 50% 2.2 mph NNW3.5 kmh NNW 2.5 mph4.0 kmh 30.16 in1021.3 mb 0.00 in0.0 mm 0.00 in/hr0.0 mm/hr 0.00 in0.0 mm
07:06 AM 32.4°F0.2°C 15.8°F-9.0°C 50% 2.3 mph N3.7 kmh N 4.9 mph7.9 kmh 30.16 in1021.3 mb 0.00 in0.0 mm 0.00 in/hr0.0 mm/hr 0.00 in0.0 mm
07:11 AM 32.2°F0.1°C 16.0°F-8.9°C 51% 1.7 mph NNE2.7 kmh NNE 4.9 mph7.9 kmh 30.16 in1021.3 mb 0.00 in0.0 mm 0.00 in/hr0.0 mm/hr 0.00 in0.0 mm
07:16 AM 32.2°F0.1°C 16.0°F-8.9°C 51% Calm Calm 4.3 mph6.9 kmh 30.17 in1021.7 mb 0.00 in0.0 mm 0.00 in/hr0.0 mm/hr 0.00 in0.0 mm
07:21 AM 32.2°F0.1°C 16.0°F-8.9°C 51% 3.4 mph SE5.5 kmh SE 4.3 mph6.9 kmh 30.17 in1021.7 mb 0.00 in0.0 mm 0.00 in/hr0.0 mm/hr 0.00 in0.0 mm
07:26 AM 31.8°F-0.1°C 16.1°F-8.8°C 52% 1.6 mph 2.6 kmh 3.4 mph5.5 kmh 30.17 in1021.7 mb 0.00 in0.0 mm 0.00 in/hr0.0 mm/hr 0.00 in0.0 mm
07:31 AM 31.8°F-0.1°C 16.1°F-8.8°C 52% Calm Calm 3.4 mph5.5 kmh 30.18 in1022.0 mb 0.00 in0.0 mm 0.00 in/hr0.0 mm/hr 0.00 in0.0 mm
07:36 AM 31.8°F-0.1°C 16.1°F-8.8°C 52% 1.9 mph N3.1 kmh N 2.9 mph4.7 kmh 30.18 in1022.0 mb 0.00 in0.0 mm 0.00 in/hr0.0 mm/hr 0.00 in0.0 mm
07:41 AM 31.8°F-0.1°C 16.1°F-8.8°C 52% Calm Calm 2.9 mph4.7 kmh 30.18 in1022.0 mb 0.00 in0.0 mm 0.00 in/hr0.0 mm/hr 0.00 in0.0 mm
07:46 AM 31.6°F-0.2°C 16.0°F-8.9°C 52% 3.0 mph N4.8 kmh N 4.0 mph6.4 kmh 30.18 in1022.0 mb 0.00 in0.0 mm 0.00 in/hr0.0 mm/hr 0.00 in0.0 mm
07:51 AM 31.6°F-0.2°C 16.0°F-8.9°C 52% Calm Calm 4.0 mph6.4 kmh 30.18 in1022.0 mb 0.00 in0.0 mm 0.00 in/hr0.0 mm/hr 0.00 in0.0 mm
07:56 AM 31.6°F-0.2°C 16.0°F-8.9°C 52% 2.1 mph NNE3.4 kmh NNE 3.4 mph5.5 kmh 30.19 in1022.4 mb 0.00 in0.0 mm 0.00 in/hr0.0 mm/hr 0.00 in0.0 mm
08:01 AM 31.6°F-0.2°C 16.0°F-8.9°C 52% 2.2 mph NNE3.5 kmh NNE 2.9 mph4.7 kmh 30.19 in1022.4 mb 0.00 in0.0 mm 0.00 in/hr0.0 mm/hr 0.00 in0.0 mm
08:06 AM 31.6°F-0.2°C 16.0°F-8.9°C 52% 1.7 mph 2.7 kmh 2.5 mph4.0 kmh 30.19 in1022.4 mb 0.00 in0.0 mm 0.00 in/hr0.0 mm/hr 0.00 in0.0 mm
08:11 AM 31.8°F-0.1°C 16.1°F-8.8°C 52% 2.4 mph N3.9 kmh N 3.6 mph5.8 kmh 30.19 in1022.4 mb 0.00 in0.0 mm 0.00 in/hr0.0 mm/hr 0.00 in0.0 mm
08:16 AM 32.2°F0.1°C 16.5°F-8.6°C 52% 3.8 mph N6.1 kmh N 6.3 mph10.1 kmh 30.20 in1022.7 mb 0.00 in0.0 mm 0.00 in/hr0.0 mm/hr 0.00 in0.0 mm
08:21 AM 32.2°F0.1°C 16.5°F-8.6°C 52% 2.8 mph N4.5 kmh N 6.3 mph10.1 kmh 30.20 in1022.7 mb 0.00 in0.0 mm 0.00 in/hr0.0 mm/hr 0.00 in0.0 mm
08:26 AM 32.5°F0.3°C 16.8°F-8.4°C 52% 1.5 mph NW2.4 kmh NW 6.3 mph10.1 kmh 30.20 in1022.7 mb 0.00 in0.0 mm 0.00 in/hr0.0 mm/hr 0.00 in0.0 mm
08:31 AM 32.5°F0.3°C 16.4°F-8.7°C 51% 2.5 mph NW4.0 kmh NW 4.5 mph7.2 kmh 30.20 in1022.7 mb 0.00 in0.0 mm 0.00 in/hr0.0 mm/hr 0.00 in0.0 mm
08:36 AM 32.7°F0.4°C 16.5°F-8.6°C 51% 2.2 mph NW3.5 kmh NW 4.5 mph7.2 kmh 30.21 in1023.0 mb 0.00 in0.0 mm 0.00 in/hr0.0 mm/hr 0.00 in0.0 mm
08:41 AM 32.9°F0.5°C 16.7°F-8.5°C 51% 2.7 mph NW4.3 kmh NW 4.9 mph7.9 kmh 30.21 in1023.0 mb 0.00 in0.0 mm 0.00 in/hr0.0 mm/hr 0.00 in0.0 mm
08:46 AM 33.1°F0.6°C 16.4°F-8.7°C 50% 2.4 mph N3.9 kmh N 5.1 mph8.2 kmh 30.21 in1023.0 mb 0.00 in0.0 mm 0.00 in/hr0.0 mm/hr 0.00 in0.0 mm
08:51 AM 33.3°F0.7°C 16.6°F-8.6°C 50% 2.8 mph WNW4.5 kmh WNW 5.1 mph8.2 kmh 30.21 in1023.0 mb 0.00 in0.0 mm 0.00 in/hr0.0 mm/hr 0.00 in0.0 mm
08:56 AM 33.6°F0.9°C 16.9°F-8.4°C 50% 2.3 mph N3.7 kmh N 5.6 mph9.0 kmh 30.22 in1023.4 mb 0.00 in0.0 mm 0.00 in/hr0.0 mm/hr 0.00 in0.0 mm
09:01 AM 33.4°F0.8°C 16.2°F-8.8°C 49% 2.3 mph N3.7 kmh N 6.0 mph9.7 kmh 30.22 in1023.4 mb 0.00 in0.0 mm 0.00 in/hr0.0 mm/hr 0.00 in0.0 mm
09:06 AM 33.8°F1.0°C 17.1°F-8.3°C 50% 3.9 mph N6.3 kmh N 6.0 mph9.7 kmh 30.23 in1023.7 mb 0.00 in0.0 mm 0.00 in/hr0.0 mm/hr 0.00 in0.0 mm
09:11 AM 34.3°F1.3°C 17.1°F-8.3°C 49% 4.4 mph NW7.1 kmh NW 8.7 mph14.0 kmh 30.22 in1023.4 mb 0.00 in0.0 mm 0.00 in/hr0.0 mm/hr 0.00 in0.0 mm
09:16 AM 34.3°F1.3°C 17.1°F-8.3°C 49% 3.3 mph NNW5.3 kmh NNW 8.7 mph14.0 kmh 30.22 in1023.4 mb 0.00 in0.0 mm 0.00 in/hr0.0 mm/hr 0.00 in0.0 mm
09:21 AM 34.7°F1.5°C 16.9°F-8.4°C 48% 5.4 mph N8.7 kmh N 8.5 mph13.7 kmh 30.23 in1023.7 mb 0.00 in0.0 mm 0.00 in/hr0.0 mm/hr 0.00 in0.0 mm
09:26 AM 34.3°F1.3°C 16.8°F-8.4°C 48% 7.3 mph N11.7 kmh N 9.8 mph15.8 kmh 30.23 in1023.7 mb 0.00 in0.0 mm 0.00 in/hr0.0 mm/hr 0.00 in0.0 mm
09:31 AM 34.3°F1.3°C 16.6°F-8.6°C 48% 4.9 mph N7.9 kmh N 9.8 mph15.8 kmh 30.23 in1023.7 mb 0.00 in0.0 mm 0.00 in/hr0.0 mm/hr 0.00 in0.0 mm
09:36 AM 34.7°F1.5°C 16.4°F-8.7°C 47% 7.2 mph N11.6 kmh N 13.6 mph21.9 kmh 30.23 in1023.7 mb 0.00 in0.0 mm 0.00 in/hr0.0 mm/hr 0.00 in0.0 mm
09:41 AM 34.9°F1.6°C 16.6°F-8.6°C 47% 4.3 mph N6.9 kmh N 13.6 mph21.9 kmh 30.24 in1024.0 mb 0.00 in0.0 mm 0.00 in/hr0.0 mm/hr 0.00 in0.0 mm
09:46 AM 35.2°F1.8°C 17.5°F-8.1°C 48% 3.9 mph N6.3 kmh N 9.6 mph15.4 kmh 30.24 in1024.0 mb 0.00 in0.0 mm 0.00 in/hr0.0 mm/hr 0.00 in0.0 mm
09:51 AM 35.2°F1.8°C 16.9°F-8.4°C 47% 4.7 mph NNW7.6 kmh NNW 9.6 mph15.4 kmh 30.24 in1024.0 mb 0.00 in0.0 mm 0.00 in/hr0.0 mm/hr 0.00 in0.0 mm
09:56 AM 35.2°F1.8°C 16.4°F-8.7°C 46% 3.7 mph N6.0 kmh N 9.6 mph15.4 kmh 30.24 in1024.0 mb 0.00 in0.0 mm 0.00 in/hr0.0 mm/hr 0.00 in0.0 mm
10:01 AM 35.4°F1.9°C 16.6°F-8.6°C 46% 5.4 mph 8.7 kmh 9.2 mph14.8 kmh 30.24 in1024.0 mb 0.00 in0.0 mm 0.00 in/hr0.0 mm/hr 0.00 in0.0 mm
10:06 AM 35.8°F2.1°C 16.9°F-8.4°C 46% 2.5 mph NW4.0 kmh NW 9.2 mph14.8 kmh 30.24 in1024.0 mb 0.00 in0.0 mm 0.00 in/hr0.0 mm/hr 0.00 in0.0 mm
10:11 AM 35.8°F2.1°C 16.9°F-8.4°C 46% 4.8 mph N7.7 kmh N 10.3 mph16.6 kmh 30.24 in1024.0 mb 0.00 in0.0 mm 0.00 in/hr0.0 mm/hr 0.00 in0.0 mm
10:16 AM 36.1°F2.3°C 17.3°F-8.2°C 46% 4.4 mph NNW7.1 kmh NNW 10.3 mph16.6 kmh 30.25 in1024.4 mb 0.00 in0.0 mm 0.00 in/hr0.0 mm/hr 0.00 in0.0 mm
10:21 AM 36.3°F2.4°C 16.9°F-8.4°C 45% 3.8 mph NNW6.1 kmh NNW 8.1 mph13.0 kmh 30.25 in1024.4 mb 0.00 in0.0 mm 0.00 in/hr0.0 mm/hr 0.00 in0.0 mm
10:26 AM 36.3°F2.4°C 15.9°F-8.9°C 43% 6.5 mph NW10.5 kmh NW 9.8 mph15.8 kmh 30.24 in1024.0 mb 0.00 in0.0 mm 0.00 in/hr0.0 mm/hr 0.00 in0.0 mm
10:31 AM 36.5°F2.5°C 16.0°F-8.9°C 43% 4.0 mph N6.4 kmh N 9.8 mph15.8 kmh 30.24 in1024.0 mb 0.00 in0.0 mm 0.00 in/hr0.0 mm/hr 0.00 in0.0 mm
10:36 AM 36.7°F2.6°C 15.7°F-9.1°C 42% 3.3 mph N5.3 kmh N 8.5 mph13.7 kmh 30.24 in1024.0 mb 0.00 in0.0 mm 0.00 in/hr0.0 mm/hr 0.00 in0.0 mm
10:41 AM 36.9°F2.7°C 15.8°F-9.0°C 42% 4.8 mph NW7.7 kmh NW 8.9 mph14.3 kmh 30.25 in1024.4 mb 0.00 in0.0 mm 0.00 in/hr0.0 mm/hr 0.00 in0.0 mm
10:46 AM 37.0°F2.8°C 15.8°F-9.0°C 42% 2.2 mph NW3.5 kmh NW 8.9 mph14.3 kmh 30.24 in1024.0 mb 0.00 in0.0 mm 0.00 in/hr0.0 mm/hr 0.00 in0.0 mm
10:51 AM 37.2°F2.9°C 16.1°F-8.8°C 42% 2.8 mph N4.5 kmh N 7.4 mph11.9 kmh 30.24 in1024.0 mb 0.00 in0.0 mm 0.00 in/hr0.0 mm/hr 0.00 in0.0 mm
10:56 AM 37.8°F3.2°C 16.1°F-8.8°C 41% 4.0 mph NW6.4 kmh NW 6.5 mph10.5 kmh 30.24 in1024.0 mb 0.00 in0.0 mm 0.00 in/hr0.0 mm/hr 0.00 in0.0 mm
11:01 AM 37.8°F3.2°C 15.9°F-8.9°C 41% 4.7 mph WNW7.6 kmh WNW 7.4 mph11.9 kmh 30.25 in1024.4 mb 0.00 in0.0 mm 0.00 in/hr0.0 mm/hr 0.00 in0.0 mm
11:06 AM 37.6°F3.1°C 15.9°F-8.9°C 41% 2.4 mph NW3.9 kmh NW 7.4 mph11.9 kmh 30.24 in1024.0 mb 0.00 in0.0 mm 0.00 in/hr0.0 mm/hr 0.00 in0.0 mm
11:11 AM 37.9°F3.3°C 16.3°F-8.7°C 41% 1.6 mph N2.6 kmh N 5.4 mph8.7 kmh 30.25 in1024.4 mb 0.00 in0.0 mm 0.00 in/hr0.0 mm/hr 0.00 in0.0 mm
11:16 AM 38.5°F3.6°C 16.8°F-8.4°C 41% 2.5 mph N4.0 kmh N 5.4 mph8.7 kmh 30.25 in1024.4 mb 0.00 in0.0 mm 0.00 in/hr0.0 mm/hr 0.00 in0.0 mm
11:21 AM 39.0°F3.9°C 16.7°F-8.5°C 40% 3.6 mph N5.8 kmh N 5.8 mph9.3 kmh 30.24 in1024.0 mb 0.00 in0.0 mm 0.00 in/hr0.0 mm/hr 0.00 in0.0 mm
11:26 AM 39.0°F3.9°C 16.1°F-8.8°C 39% 4.6 mph NW7.4 kmh NW 9.6 mph15.4 kmh 30.24 in1024.0 mb 0.00 in0.0 mm 0.00 in/hr0.0 mm/hr 0.00 in0.0 mm
11:31 AM 38.8°F3.8°C 15.9°F-8.9°C 39% 2.4 mph NW3.9 kmh NW 9.6 mph15.4 kmh 30.25 in1024.4 mb 0.00 in0.0 mm 0.00 in/hr0.0 mm/hr 0.00 in0.0 mm
11:36 AM 38.8°F3.8°C 15.9°F-8.9°C 39% 4.3 mph N6.9 kmh N 9.2 mph14.8 kmh 30.25 in1024.4 mb 0.00 in0.0 mm 0.00 in/hr0.0 mm/hr 0.00 in0.0 mm
11:41 AM 39.2°F4.0°C 16.2°F-8.8°C 39% 3.4 mph NE5.5 kmh NE 9.2 mph14.8 kmh 30.25 in1024.4 mb 0.00 in0.0 mm 0.00 in/hr0.0 mm/hr 0.00 in0.0 mm
11:46 AM 39.6°F4.2°C 15.9°F-8.9°C 38% 5.7 mph NW9.2 kmh NW 10.5 mph16.9 kmh 30.25 in1024.4 mb 0.00 in0.0 mm 0.00 in/hr0.0 mm/hr 0.00 in0.0 mm
11:51 AM 39.6°F4.2°C 16.6°F-8.6°C 39% 3.0 mph NNW4.8 kmh NNW 10.5 mph16.9 kmh 30.25 in1024.4 mb 0.00 in0.0 mm 0.00 in/hr0.0 mm/hr 0.00 in0.0 mm
11:56 AM 39.9°F4.4°C 16.2°F-8.8°C 38% 5.5 mph WNW8.9 kmh WNW 9.8 mph15.8 kmh 30.26 in1024.7 mb 0.00 in0.0 mm 0.00 in/hr0.0 mm/hr 0.00 in0.0 mm
12:01 PM 39.7°F4.3°C 16.1°F-8.8°C 38% 4.0 mph NW6.4 kmh NW 12.1 mph19.5 kmh 30.26 in1024.7 mb 0.00 in0.0 mm 0.00 in/hr0.0 mm/hr 0.00 in0.0 mm
12:06 PM 39.9°F4.4°C 16.2°F-8.8°C 38% 2.5 mph N4.0 kmh N 12.1 mph19.5 kmh 30.25 in1024.4 mb 0.00 in0.0 mm 0.00 in/hr0.0 mm/hr 0.00 in0.0 mm
12:11 PM 40.5°F4.7°C 16.1°F-8.8°C 37% 6.2 mph WNW10.0 kmh WNW 9.6 mph15.4 kmh 30.25 in1024.4 mb 0.00 in0.0 mm 0.00 in/hr0.0 mm/hr 0.00 in0.0 mm
12:16 PM 40.8°F4.9°C 17.0°F-8.3°C 38% 6.5 mph N10.5 kmh N 10.5 mph16.9 kmh 30.25 in1024.4 mb 0.00 in0.0 mm 0.00 in/hr0.0 mm/hr 0.00 in0.0 mm
12:21 PM 40.8°F4.9°C 16.4°F-8.7°C 37% 3.7 mph NNW6.0 kmh NNW 10.5 mph16.9 kmh 30.25 in1024.4 mb 0.00 in0.0 mm 0.00 in/hr0.0 mm/hr 0.00 in0.0 mm
12:26 PM 41.2°F5.1°C 16.7°F-8.5°C 37% 3.7 mph N6.0 kmh N 7.2 mph11.6 kmh 30.25 in1024.4 mb 0.00 in0.0 mm 0.00 in/hr0.0 mm/hr 0.00 in0.0 mm
12:31 PM 41.4°F5.2°C 16.9°F-8.4°C 37% 4.0 mph 6.4 kmh 7.6 mph12.2 kmh 30.25 in1024.4 mb 0.00 in0.0 mm 0.00 in/hr0.0 mm/hr 0.00 in0.0 mm
12:36 PM 41.2°F5.1°C 16.1°F-8.8°C 36% 5.7 mph N9.2 kmh N 8.7 mph14.0 kmh 30.25 in1024.4 mb 0.00 in0.0 mm 0.00 in/hr0.0 mm/hr 0.00 in0.0 mm
12:41 PM 41.4°F5.2°C 16.2°F-8.8°C 36% 2.8 mph NNE4.5 kmh NNE 8.7 mph14.0 kmh 30.24 in1024.0 mb 0.00 in0.0 mm 0.00 in/hr0.0 mm/hr 0.00 in0.0 mm
12:46 PM 42.1°F5.6°C 16.8°F-8.4°C 36% 4.2 mph NNE6.8 kmh NNE 6.0 mph9.7 kmh 30.24 in1024.0 mb 0.00 in0.0 mm 0.00 in/hr0.0 mm/hr 0.00 in0.0 mm
12:51 PM 42.6°F5.9°C 17.3°F-8.2°C 36% 2.6 mph N4.2 kmh N 6.0 mph9.7 kmh 30.24 in1024.0 mb 0.00 in0.0 mm 0.00 in/hr0.0 mm/hr 0.00 in0.0 mm
12:56 PM 43.0°F6.1°C 17.6°F-8.0°C 36% 2.4 mph NW3.9 kmh NW 6.3 mph10.1 kmh 30.24 in1024.0 mb 0.00 in0.0 mm 0.00 in/hr0.0 mm/hr 0.00 in0.0 mm
01:01 PM 43.2°F6.2°C 17.8°F-7.9°C 36% 4.7 mph WNW7.6 kmh WNW 7.6 mph12.2 kmh 30.24 in1024.0 mb 0.00 in0.0 mm 0.00 in/hr0.0 mm/hr 0.00 in0.0 mm
01:06 PM 43.2°F6.2°C 17.1°F-8.3°C 35% Calm Calm 7.6 mph12.2 kmh 30.24 in1024.0 mb 0.00 in0.0 mm 0.00 in/hr0.0 mm/hr 0.00 in0.0 mm
01:11 PM 43.5°F6.4°C 18.1°F-7.7°C 36% 3.9 mph W6.3 kmh W 4.5 mph7.2 kmh 30.24 in1024.0 mb 0.00 in0.0 mm 0.00 in/hr0.0 mm/hr 0.00 in0.0 mm
01:16 PM 43.9°F6.6°C 17.8°F-7.9°C 35% 5.5 mph W8.9 kmh W 7.8 mph12.6 kmh 30.23 in1023.7 mb 0.00 in0.0 mm 0.00 in/hr0.0 mm/hr 0.00 in0.0 mm
01:21 PM 45.0°F7.2°C 18.7°F-7.4°C 35% 3.4 mph NW5.5 kmh NW 9.6 mph15.4 kmh 30.23 in1023.7 mb 0.00 in0.0 mm 0.00 in/hr0.0 mm/hr 0.00 in0.0 mm
01:26 PM 45.3°F7.4°C 19.1°F-7.2°C 35% 3.1 mph N5.0 kmh N 9.6 mph15.4 kmh 30.23 in1023.7 mb 0.00 in0.0 mm 0.00 in/hr0.0 mm/hr 0.00 in0.0 mm
01:31 PM 44.8°F7.1°C 17.9°F-7.8°C 34% 5.6 mph NNE9.0 kmh NNE 9.2 mph14.8 kmh 30.23 in1023.7 mb 0.00 in0.0 mm 0.00 in/hr0.0 mm/hr 0.00 in0.0 mm
01:36 PM 44.1°F6.7°C 16.6°F-8.6°C 33% 3.7 mph NW6.0 kmh NW 9.2 mph14.8 kmh 30.22 in1023.4 mb 0.00 in0.0 mm 0.00 in/hr0.0 mm/hr 0.00 in0.0 mm
01:41 PM 44.4°F6.9°C 17.6°F-8.0°C 34% 4.8 mph NW7.7 kmh NW 7.2 mph11.6 kmh 30.22 in1023.4 mb 0.00 in0.0 mm 0.00 in/hr0.0 mm/hr 0.00 in0.0 mm
01:46 PM 45.1°F7.3°C 18.2°F-7.7°C 34% 2.1 mph E3.4 kmh E 7.2 mph11.6 kmh 30.22 in1023.4 mb 0.00 in0.0 mm 0.00 in/hr0.0 mm/hr 0.00 in0.0 mm
01:51 PM 45.7°F7.6°C 18.7°F-7.4°C 34% 3.2 mph NW5.1 kmh NW 6.9 mph11.1 kmh 30.23 in1023.7 mb 0.00 in0.0 mm 0.00 in/hr0.0 mm/hr 0.00 in0.0 mm
01:56 PM 46.0°F7.8°C 18.4°F-7.6°C 33% 3.1 mph NNW5.0 kmh NNW 6.0 mph9.7 kmh 30.22 in1023.4 mb 0.00 in0.0 mm 0.00 in/hr0.0 mm/hr 0.00 in0.0 mm
02:01 PM 46.4°F8.0°C 18.7°F-7.4°C 33% 3.3 mph N5.3 kmh N 7.4 mph11.9 kmh 30.22 in1023.4 mb 0.00 in0.0 mm 0.00 in/hr0.0 mm/hr 0.00 in0.0 mm
02:06 PM 46.2°F7.9°C 17.9°F-7.8°C 32% 4.0 mph N6.4 kmh N 8.9 mph14.3 kmh 30.22 in1023.4 mb 0.00 in0.0 mm 0.00 in/hr0.0 mm/hr 0.00 in0.0 mm
02:11 PM 46.2°F7.9°C 17.9°F-7.8°C 32% 2.5 mph N4.0 kmh N 9.6 mph15.4 kmh 30.21 in1023.0 mb 0.00 in0.0 mm 0.00 in/hr0.0 mm/hr 0.00 in0.0 mm
02:16 PM 46.2°F7.9°C 17.9°F-7.8°C 32% 3.3 mph NW5.3 kmh NW 9.6 mph15.4 kmh 30.21 in1023.0 mb 0.00 in0.0 mm 0.00 in/hr0.0 mm/hr 0.00 in0.0 mm
02:21 PM 46.2°F7.9°C 17.9°F-7.8°C 32% 2.4 mph NNE3.9 kmh NNE 6.5 mph10.5 kmh 30.21 in1023.0 mb 0.00 in0.0 mm 0.00 in/hr0.0 mm/hr 0.00 in0.0 mm
02:26 PM 46.8°F8.2°C 17.7°F-7.9°C 31% 3.1 mph 5.0 kmh 6.5 mph10.5 kmh 30.20 in1022.7 mb 0.00 in0.0 mm 0.00 in/hr0.0 mm/hr 0.00 in0.0 mm
02:31 PM 46.9°F8.3°C 17.2°F-8.2°C 30% 3.2 mph N5.1 kmh N 7.2 mph11.6 kmh 30.21 in1023.0 mb 0.00 in0.0 mm 0.00 in/hr0.0 mm/hr 0.00 in0.0 mm
02:36 PM 47.5°F8.6°C 17.7°F-7.9°C 30% 3.2 mph N5.1 kmh N 7.2 mph11.6 kmh 30.21 in1023.0 mb 0.00 in0.0 mm 0.00 in/hr0.0 mm/hr 0.00 in0.0 mm
02:41 PM 47.5°F8.6°C 17.7°F-7.9°C 30% 2.3 mph N3.7 kmh N 6.3 mph10.1 kmh 30.21 in1023.0 mb 0.00 in0.0 mm 0.00 in/hr0.0 mm/hr 0.00 in0.0 mm
02:46 PM 47.5°F8.6°C 17.7°F-7.9°C 30% 2.6 mph N4.2 kmh N 6.7 mph10.8 kmh 30.20 in1022.7 mb 0.00 in0.0 mm 0.00 in/hr0.0 mm/hr 0.00 in0.0 mm
02:51 PM 48.0°F8.9°C 18.2°F-7.7°C 30% 2.8 mph N4.5 kmh N 7.2 mph11.6 kmh 30.20 in1022.7 mb 0.00 in0.0 mm 0.00 in/hr0.0 mm/hr 0.00 in0.0 mm
02:56 PM 47.8°F8.8°C 18.0°F-7.8°C 30% 3.1 mph WNW5.0 kmh WNW 8.3 mph13.4 kmh 30.19 in1022.4 mb 0.00 in0.0 mm 0.00 in/hr0.0 mm/hr 0.00 in0.0 mm
03:01 PM 47.8°F8.8°C 18.0°F-7.8°C 30% 2.3 mph NNW3.7 kmh NNW 8.3 mph13.4 kmh 30.20 in1022.7 mb 0.00 in0.0 mm 0.00 in/hr0.0 mm/hr 0.00 in0.0 mm
03:06 PM 48.0°F8.9°C 18.0°F-7.8°C 30% 3.4 mph NNE5.5 kmh NNE 5.1 mph8.2 kmh 30.19 in1022.4 mb 0.00 in0.0 mm 0.00 in/hr0.0 mm/hr 0.00 in0.0 mm
03:11 PM 48.4°F9.1°C 18.5°F-7.5°C 30% 2.2 mph N3.5 kmh N 4.0 mph6.4 kmh 30.19 in1022.4 mb 0.00 in0.0 mm 0.00 in/hr0.0 mm/hr 0.00 in0.0 mm
03:16 PM 48.7°F9.3°C 17.8°F-7.9°C 29% 3.3 mph N5.3 kmh N 4.5 mph7.2 kmh 30.19 in1022.4 mb 0.00 in0.0 mm 0.00 in/hr0.0 mm/hr 0.00 in0.0 mm
03:21 PM 48.7°F9.3°C 17.8°F-7.9°C 29% 3.8 mph W6.1 kmh W 9.8 mph15.8 kmh 30.20 in1022.7 mb 0.00 in0.0 mm 0.00 in/hr0.0 mm/hr 0.00 in0.0 mm
03:26 PM 48.4°F9.1°C 17.5°F-8.1°C 29% 2.3 mph NW3.7 kmh NW 9.8 mph15.8 kmh 30.19 in1022.4 mb 0.00 in0.0 mm 0.00 in/hr0.0 mm/hr 0.00 in0.0 mm
03:31 PM 48.0°F8.9°C 17.2°F-8.2°C 29% 4.4 mph NW7.1 kmh NW 6.7 mph10.8 kmh 30.19 in1022.4 mb 0.00 in0.0 mm 0.00 in/hr0.0 mm/hr 0.00 in0.0 mm
03:36 PM 48.0°F8.9°C 17.2°F-8.2°C 29% 2.8 mph N4.5 kmh N 6.0 mph9.7 kmh 30.19 in1022.4 mb 0.00 in0.0 mm 0.00 in/hr0.0 mm/hr 0.00 in0.0 mm
03:41 PM 47.8°F8.8°C 17.1°F-8.3°C 29% 1.8 mph ESE2.9 kmh ESE 5.1 mph8.2 kmh 30.20 in1022.7 mb 0.00 in0.0 mm 0.00 in/hr0.0 mm/hr 0.00 in0.0 mm
03:46 PM 48.4°F9.1°C 17.5°F-8.1°C 29% 3.2 mph WNW5.1 kmh WNW 6.9 mph11.1 kmh 30.20 in1022.7 mb 0.00 in0.0 mm 0.00 in/hr0.0 mm/hr 0.00 in0.0 mm
03:51 PM 48.4°F9.1°C 17.5°F-8.1°C 29% 4.8 mph WNW7.7 kmh WNW 7.4 mph11.9 kmh 30.19 in1022.4 mb 0.00 in0.0 mm 0.00 in/hr0.0 mm/hr 0.00 in0.0 mm
03:56 PM 48.9°F9.4°C 18.0°F-7.8°C 29% 2.7 mph W4.3 kmh W 7.4 mph11.9 kmh 30.20 in1022.7 mb 0.00 in0.0 mm 0.00 in/hr0.0 mm/hr 0.00 in0.0 mm
04:01 PM 48.9°F9.4°C 17.0°F-8.3°C 28% 3.5 mph WNW5.6 kmh WNW 8.1 mph13.0 kmh 30.20 in1022.7 mb 0.00 in0.0 mm 0.00 in/hr0.0 mm/hr 0.00 in0.0 mm
04:06 PM 48.9°F9.4°C 17.0°F-8.3°C 28% 3.5 mph NW5.6 kmh NW 8.1 mph13.0 kmh 30.20 in1022.7 mb 0.00 in0.0 mm 0.00 in/hr0.0 mm/hr 0.00 in0.0 mm
04:11 PM 48.7°F9.3°C 16.9°F-8.4°C 28% 3.8 mph WSW6.1 kmh WSW 6.0 mph9.7 kmh 30.20 in1022.7 mb 0.00 in0.0 mm 0.00 in/hr0.0 mm/hr 0.00 in0.0 mm
04:16 PM 48.7°F9.3°C 16.9°F-8.4°C 28% 3.9 mph NW6.3 kmh NW 6.0 mph9.7 kmh 30.21 in1023.0 mb 0.00 in0.0 mm 0.00 in/hr0.0 mm/hr 0.00 in0.0 mm
04:21 PM 48.7°F9.3°C 15.9°F-8.9°C 27% 2.2 mph WNW3.5 kmh WNW 6.0 mph9.7 kmh 30.21 in1023.0 mb 0.00 in0.0 mm 0.00 in/hr0.0 mm/hr 0.00 in0.0 mm
04:26 PM 48.9°F9.4°C 16.1°F-8.8°C 27% 2.0 mph SW3.2 kmh SW 5.4 mph8.7 kmh 30.21 in1023.0 mb 0.00 in0.0 mm 0.00 in/hr0.0 mm/hr 0.00 in0.0 mm
04:31 PM 48.4°F9.1°C 14.7°F-9.6°C 27% 3.5 mph WNW5.6 kmh WNW 4.9 mph7.9 kmh 30.20 in1022.7 mb 0.00 in0.0 mm 0.00 in/hr0.0 mm/hr 0.00 in0.0 mm
04:36 PM 48.4°F9.1°C 15.7°F-9.1°C 27% 2.2 mph W3.5 kmh W 4.9 mph7.9 kmh 30.20 in1022.7 mb 0.00 in0.0 mm 0.00 in/hr0.0 mm/hr 0.00 in0.0 mm
04:41 PM 48.2°F9.0°C 15.5°F-9.2°C 27% 3.9 mph NW6.3 kmh NW 6.0 mph9.7 kmh 30.21 in1023.0 mb 0.00 in0.0 mm 0.00 in/hr0.0 mm/hr 0.00 in0.0 mm
04:46 PM 47.7°F8.7°C 15.0°F-9.4°C 27% 3.4 mph N5.5 kmh N 6.0 mph9.7 kmh 30.21 in1023.0 mb 0.00 in0.0 mm 0.00 in/hr0.0 mm/hr 0.00 in0.0 mm
04:51 PM 47.5°F8.6°C 14.9°F-9.5°C 27% 2.4 mph ENE3.9 kmh ENE 4.7 mph7.6 kmh 30.21 in1023.0 mb 0.00 in0.0 mm 0.00 in/hr0.0 mm/hr 0.00 in0.0 mm
04:56 PM 47.5°F8.6°C 15.8°F-9.0°C 28% Calm Calm 4.5 mph7.2 kmh 30.21 in1023.0 mb 0.00 in0.0 mm 0.00 in/hr0.0 mm/hr 0.00 in0.0 mm
05:01 PM 47.5°F8.6°C 14.9°F-9.5°C 27% 2.0 mph WNW3.2 kmh WNW 2.7 mph4.3 kmh 30.21 in1023.0 mb 0.00 in0.0 mm 0.00 in/hr0.0 mm/hr 0.00 in0.0 mm
05:06 PM 47.5°F8.6°C 13.9°F-10.1°C 26% 2.4 mph SSW3.9 kmh SSW 4.7 mph7.6 kmh 30.21 in1023.0 mb 0.00 in0.0 mm 0.00 in/hr0.0 mm/hr 0.00 in0.0 mm
05:11 PM 47.5°F8.6°C 13.9°F-10.1°C 26% 2.2 mph NNW3.5 kmh NNW 4.7 mph7.6 kmh 30.20 in1022.7 mb 0.00 in0.0 mm 0.00 in/hr0.0 mm/hr 0.00 in0.0 mm
05:16 PM 47.3°F8.5°C 13.8°F-10.1°C 26% 2.5 mph NW4.0 kmh NW 4.5 mph7.2 kmh 30.21 in1023.0 mb 0.00 in0.0 mm 0.00 in/hr0.0 mm/hr 0.00 in0.0 mm
05:21 PM 47.1°F8.4°C 13.6°F-10.2°C 26% 1.8 mph WSW2.9 kmh WSW 4.5 mph7.2 kmh 30.21 in1023.0 mb 0.00 in0.0 mm 0.00 in/hr0.0 mm/hr 0.00 in0.0 mm
05:26 PM 47.1°F8.4°C 14.6°F-9.7°C 27% 1.6 mph W2.6 kmh W 3.1 mph5.0 kmh 30.21 in1023.0 mb 0.00 in0.0 mm 0.00 in/hr0.0 mm/hr 0.00 in0.0 mm
05:31 PM 46.8°F8.2°C 13.3°F-10.4°C 26% 0.9 mph N1.4 kmh N 4.5 mph7.2 kmh 30.21 in1023.0 mb 0.00 in0.0 mm 0.00 in/hr0.0 mm/hr 0.00 in0.0 mm
05:36 PM 46.4°F8.0°C 13.0°F-10.6°C 26% 2.1 mph N3.4 kmh N 4.5 mph7.2 kmh 30.21 in1023.0 mb 0.00 in0.0 mm 0.00 in/hr0.0 mm/hr 0.00 in0.0 mm
05:41 PM 46.2°F7.9°C 12.9°F-10.6°C 26% 1.9 mph NNE3.1 kmh NNE 4.0 mph6.4 kmh 30.21 in1023.0 mb 0.00 in0.0 mm 0.00 in/hr0.0 mm/hr 0.00 in0.0 mm
05:46 PM 46.2°F7.9°C 12.9°F-10.6°C 26% 3.8 mph N6.1 kmh N 5.8 mph9.3 kmh 30.21 in1023.0 mb 0.00 in0.0 mm 0.00 in/hr0.0 mm/hr 0.00 in0.0 mm
05:51 PM 46.0°F7.8°C 13.6°F-10.2°C 27% 2.6 mph NW4.2 kmh NW 5.8 mph9.3 kmh 30.21 in1023.0 mb 0.00 in0.0 mm 0.00 in/hr0.0 mm/hr 0.00 in0.0 mm
05:56 PM 45.7°F7.6°C 14.2°F-9.9°C 28% 1.9 mph N3.1 kmh N 3.8 mph6.1 kmh 30.21 in1023.0 mb 0.00 in0.0 mm 0.00 in/hr0.0 mm/hr 0.00 in0.0 mm
06:01 PM 45.7°F7.6°C 13.3°F-10.4°C 27% 2.1 mph N3.4 kmh N 3.8 mph6.1 kmh 30.21 in1023.0 mb 0.00 in0.0 mm 0.00 in/hr0.0 mm/hr 0.00 in0.0 mm
06:06 PM 45.3°F7.4°C 13.0°F-10.6°C 27% Calm Calm 3.8 mph6.1 kmh 30.21 in1023.0 mb 0.00 in0.0 mm 0.00 in/hr0.0 mm/hr 0.00 in0.0 mm
06:11 PM 45.3°F7.4°C 13.0°F-10.6°C 27% Calm Calm 3.8 mph6.1 kmh 30.21 in1023.0 mb 0.00 in0.0 mm 0.00 in/hr0.0 mm/hr 0.00 in0.0 mm
06:16 PM 45.1°F7.3°C 12.8°F-10.7°C 27% 0.7 mph 1.1 kmh 2.5 mph4.0 kmh 30.21 in1023.0 mb 0.00 in0.0 mm 0.00 in/hr0.0 mm/hr 0.00 in0.0 mm
06:21 PM 45.1°F7.3°C 11.9°F-11.2°C 26% 2.8 mph WNW4.5 kmh WNW 3.6 mph5.8 kmh 30.21 in1023.0 mb 0.00 in0.0 mm 0.00 in/hr0.0 mm/hr 0.00 in0.0 mm
06:26 PM 45.1°F7.3°C 11.9°F-11.2°C 26% 1.2 mph WSW1.9 kmh WSW 3.6 mph5.8 kmh 30.22 in1023.4 mb 0.00 in0.0 mm 0.00 in/hr0.0 mm/hr 0.00 in0.0 mm
06:32 PM 45.0°F7.2°C 11.8°F-11.2°C 26% 2.7 mph WNW4.3 kmh WNW 4.3 mph6.9 kmh 30.21 in1023.0 mb 0.00 in0.0 mm 0.00 in/hr0.0 mm/hr 0.00 in0.0 mm
06:37 PM 45.0°F7.2°C 11.8°F-11.2°C 26% 2.5 mph W4.0 kmh W 4.3 mph6.9 kmh 30.21 in1023.0 mb 0.00 in0.0 mm 0.00 in/hr0.0 mm/hr 0.00 in0.0 mm
06:42 PM 44.8°F7.1°C 11.6°F-11.3°C 26% Calm Calm 3.1 mph5.0 kmh 30.21 in1023.0 mb 0.00 in0.0 mm 0.00 in/hr0.0 mm/hr 0.00 in0.0 mm
06:46 PM 44.6°F7.0°C 12.4°F-10.9°C 27% 1.4 mph WSW2.3 kmh WSW 2.0 mph3.2 kmh 30.21 in1023.0 mb 0.00 in0.0 mm 0.00 in/hr0.0 mm/hr 0.00 in0.0 mm
06:52 PM 44.4°F6.9°C 12.2°F-11.0°C 27% Calm Calm 2.0 mph3.2 kmh 30.21 in1023.0 mb 0.00 in0.0 mm 0.00 in/hr0.0 mm/hr 0.00 in0.0 mm
06:56 PM 44.4°F6.9°C 12.2°F-11.0°C 27% Calm Calm 2.7 mph4.3 kmh 30.21 in1023.0 mb 0.00 in0.0 mm 0.00 in/hr0.0 mm/hr 0.00 in0.0 mm
07:02 PM 44.4°F6.9°C 12.2°F-11.0°C 27% Calm Calm 2.7 mph4.3 kmh 30.21 in1023.0 mb 0.00 in0.0 mm 0.00 in/hr0.0 mm/hr 0.00 in0.0 mm
07:07 PM 44.1°F6.7°C 11.9°F-11.2°C 27% Calm Calm -- 30.21 in1023.0 mb 0.00 in0.0 mm 0.00 in/hr0.0 mm/hr 0.00 in0.0 mm
07:12 PM 43.9°F6.6°C 13.5°F-10.3°C 29% Calm Calm -- 30.21 in1023.0 mb 0.00 in0.0 mm 0.00 in/hr0.0 mm/hr 0.00 in0.0 mm
07:16 PM 43.5°F6.4°C 14.1°F-9.9°C 30% Calm Calm -- 30.22 in1023.4 mb 0.00 in0.0 mm 0.00 in/hr0.0 mm/hr 0.00 in0.0 mm
07:22 PM 42.8°F6.0°C 13.5°F-10.3°C 30% Calm Calm -- 30.22 in1023.4 mb 0.00 in0.0 mm 0.00 in/hr0.0 mm/hr 0.00 in0.0 mm
07:27 PM 42.4°F5.8°C 14.5°F-9.7°C 32% Calm Calm -- 30.22 in1023.4 mb 0.00 in0.0 mm 0.00 in/hr0.0 mm/hr 0.00 in0.0 mm
07:32 PM 41.9°F5.5°C 13.4°F-10.3°C 31% Calm Calm -- 30.22 in1023.4 mb 0.00 in0.0 mm 0.00 in/hr0.0 mm/hr 0.00 in0.0 mm
07:37 PM 41.7°F5.4°C 13.2°F-10.4°C 31% Calm Calm -- 30.21 in1023.0 mb 0.00 in0.0 mm 0.00 in/hr0.0 mm/hr 0.00 in0.0 mm
07:42 PM 41.5°F5.3°C 13.1°F-10.5°C 31% Calm Calm -- 30.21 in1023.0 mb 0.00 in0.0 mm 0.00 in/hr0.0 mm/hr 0.00 in0.0 mm
07:47 PM 41.5°F5.3°C 13.1°F-10.5°C 31% Calm Calm -- 30.21 in1023.0 mb 0.00 in0.0 mm 0.00 in/hr0.0 mm/hr 0.00 in0.0 mm
07:52 PM 41.5°F5.3°C 13.1°F-10.5°C 31% Calm Calm -- 30.21 in1023.0 mb 0.00 in0.0 mm 0.00 in/hr0.0 mm/hr 0.00 in0.0 mm
07:57 PM 41.2°F5.1°C 13.6°F-10.2°C 32% Calm Calm -- 30.21 in1023.0 mb 0.00 in0.0 mm 0.00 in/hr0.0 mm/hr 0.00 in0.0 mm
08:02 PM 40.8°F4.9°C 13.8°F-10.1°C 33% Calm Calm -- 30.22 in1023.4 mb 0.00 in0.0 mm 0.00 in/hr0.0 mm/hr 0.00 in0.0 mm
08:07 PM 40.5°F4.7°C 14.8°F-9.6°C 35% Calm Calm -- 30.22 in1023.4 mb 0.00 in0.0 mm 0.00 in/hr0.0 mm/hr 0.00 in0.0 mm
08:12 PM 40.1°F4.5°C 14.4°F-9.8°C 35% Calm Calm -- 30.22 in1023.4 mb 0.00 in0.0 mm 0.00 in/hr0.0 mm/hr 0.00 in0.0 mm
08:16 PM 39.9°F4.4°C 14.3°F-9.8°C 35% Calm Calm -- 30.22 in1023.4 mb 0.00 in0.0 mm 0.00 in/hr0.0 mm/hr 0.00 in0.0 mm
08:21 PM 39.7°F4.3°C 14.1°F-9.9°C 35% Calm Calm -- 30.21 in1023.0 mb 0.00 in0.0 mm 0.00 in/hr0.0 mm/hr 0.00 in0.0 mm
08:27 PM 39.6°F4.2°C 14.6°F-9.7°C 36% Calm Calm -- 30.22 in1023.4 mb 0.00 in0.0 mm 0.00 in/hr0.0 mm/hr 0.00 in0.0 mm
08:31 PM 39.0°F3.9°C 15.4°F-9.2°C 38% Calm Calm -- 30.22 in1023.4 mb 0.00 in0.0 mm 0.00 in/hr0.0 mm/hr 0.00 in0.0 mm
08:37 PM 38.8°F3.8°C 15.9°F-8.9°C 39% Calm Calm -- 30.22 in1023.4 mb 0.00 in0.0 mm 0.00 in/hr0.0 mm/hr 0.00 in0.0 mm
08:42 PM 38.5°F3.6°C 16.2°F-8.8°C 40% Calm Calm -- 30.21 in1023.0 mb 0.00 in0.0 mm 0.00 in/hr0.0 mm/hr 0.00 in0.0 mm
08:47 PM 38.1°F3.4°C 15.3°F-9.3°C 39% Calm Calm -- 30.21 in1023.0 mb 0.00 in0.0 mm 0.00 in/hr0.0 mm/hr 0.00 in0.0 mm
08:52 PM 37.9°F3.3°C 15.1°F-9.4°C 39% Calm Calm -- 30.21 in1023.0 mb 0.00 in0.0 mm 0.00 in/hr0.0 mm/hr 0.00 in0.0 mm
08:57 PM 37.8°F3.2°C 15.6°F-9.1°C 40% Calm Calm -- 30.22 in1023.4 mb 0.00 in0.0 mm 0.00 in/hr0.0 mm/hr 0.00 in0.0 mm
09:02 PM 37.6°F3.1°C 14.8°F-9.6°C 39% Calm Calm -- 30.21 in1023.0 mb 0.00 in0.0 mm 0.00 in/hr0.0 mm/hr 0.00 in0.0 mm
09:07 PM 37.4°F3.0°C 14.6°F-9.7°C 39% Calm Calm -- 30.21 in1023.0 mb 0.00 in0.0 mm 0.00 in/hr0.0 mm/hr 0.00 in0.0 mm
09:12 PM 37.2°F2.9°C 15.1°F-9.4°C 40% Calm Calm -- 30.21 in1023.0 mb 0.00 in0.0 mm 0.00 in/hr0.0 mm/hr 0.00 in0.0 mm
09:17 PM 37.2°F2.9°C 15.6°F-9.1°C 41% Calm Calm -- 30.22 in1023.4 mb 0.00 in0.0 mm 0.00 in/hr0.0 mm/hr 0.00 in0.0 mm
09:21 PM 37.0°F2.8°C 16.0°F-8.9°C 42% Calm Calm -- 30.22 in1023.4 mb 0.00 in0.0 mm 0.00 in/hr0.0 mm/hr 0.00 in0.0 mm
09:27 PM 36.7°F2.6°C 16.7°F-8.5°C 44% Calm Calm -- 30.22 in1023.4 mb 0.00 in0.0 mm 0.00 in/hr0.0 mm/hr 0.00 in0.0 mm
09:32 PM 36.3°F2.4°C 16.9°F-8.4°C 45% Calm Calm -- 30.22 in1023.4 mb 0.00 in0.0 mm 0.00 in/hr0.0 mm/hr 0.00 in0.0 mm
09:37 PM 36.1°F2.3°C 16.2°F-8.8°C 44% Calm Calm -- 30.21 in1023.0 mb 0.00 in0.0 mm 0.00 in/hr0.0 mm/hr 0.00 in0.0 mm
09:42 PM 36.1°F2.3°C 16.2°F-8.8°C 44% Calm Calm -- 30.22 in1023.4 mb 0.00 in0.0 mm 0.00 in/hr0.0 mm/hr 0.00 in0.0 mm
09:47 PM 36.0°F2.2°C 16.1°F-8.8°C 44% Calm Calm -- 30.21 in1023.0 mb 0.00 in0.0 mm 0.00 in/hr0.0 mm/hr 0.00 in0.0 mm
09:52 PM 35.8°F2.1°C 16.4°F-8.7°C 45% Calm Calm -- 30.22 in1023.4 mb 0.00 in0.0 mm 0.00 in/hr0.0 mm/hr 0.00 in0.0 mm
09:57 PM 35.6°F2.0°C 18.3°F-7.6°C 49% 2.3 mph E3.7 kmh E 3.6 mph5.8 kmh 30.22 in1023.4 mb 0.00 in0.0 mm 0.00 in/hr0.0 mm/hr 0.00 in0.0 mm
10:02 PM 35.4°F1.9°C 18.2°F-7.7°C 49% 2.1 mph E3.4 kmh E 4.3 mph6.9 kmh 30.22 in1023.4 mb 0.00 in0.0 mm 0.00 in/hr0.0 mm/hr 0.00 in0.0 mm
10:07 PM 36.1°F2.3°C 18.3°F-7.6°C 48% 3.0 mph ESE4.8 kmh ESE 4.3 mph6.9 kmh 30.22 in1023.4 mb 0.00 in0.0 mm 0.00 in/hr0.0 mm/hr 0.00 in0.0 mm
10:12 PM 36.5°F2.5°C 18.6°F-7.4°C 48% 1.9 mph ESE3.1 kmh ESE 4.7 mph7.6 kmh 30.21 in1023.0 mb 0.00 in0.0 mm 0.00 in/hr0.0 mm/hr 0.00 in0.0 mm
10:17 PM 36.5°F2.5°C 18.6°F-7.4°C 48% Calm Calm 4.7 mph7.6 kmh 30.22 in1023.4 mb 0.00 in0.0 mm 0.00 in/hr0.0 mm/hr 0.00 in0.0 mm
10:22 PM 36.3°F2.4°C 19.0°F-7.2°C 49% Calm Calm 3.1 mph5.0 kmh 30.21 in1023.0 mb 0.00 in0.0 mm 0.00 in/hr0.0 mm/hr 0.00 in0.0 mm
10:27 PM 36.3°F2.4°C 19.0°F-7.2°C 49% Calm Calm -- 30.21 in1023.0 mb 0.00 in0.0 mm 0.00 in/hr0.0 mm/hr 0.00 in0.0 mm
10:32 PM 36.1°F2.3°C 19.5°F-6.9°C 50% Calm Calm -- 30.21 in1023.0 mb 0.00 in0.0 mm 0.00 in/hr0.0 mm/hr 0.00 in0.0 mm
10:37 PM 36.0°F2.2°C 19.2°F-7.1°C 50% Calm Calm -- 30.22 in1023.4 mb 0.00 in0.0 mm 0.00 in/hr0.0 mm/hr 0.00 in0.0 mm
10:42 PM 36.0°F2.2°C 19.2°F-7.1°C 50% Calm Calm -- 30.21 in1023.0 mb 0.00 in0.0 mm 0.00 in/hr0.0 mm/hr 0.00 in0.0 mm
10:47 PM 36.0°F2.2°C 19.2°F-7.1°C 50% Calm Calm -- 30.22 in1023.4 mb 0.00 in0.0 mm 0.00 in/hr0.0 mm/hr 0.00 in0.0 mm
10:52 PM 35.8°F2.1°C 19.5°F-6.9°C 51% Calm Calm -- 30.22 in1023.4 mb 0.00 in0.0 mm 0.00 in/hr0.0 mm/hr 0.00 in0.0 mm
10:57 PM 35.8°F2.1°C 19.5°F-6.9°C 51% 1.6 mph ESE2.6 kmh ESE 1.8 mph2.9 kmh 30.22 in1023.4 mb 0.00 in0.0 mm 0.00 in/hr0.0 mm/hr 0.00 in0.0 mm
11:02 PM 35.6°F2.0°C 19.7°F-6.8°C 52% Calm Calm 2.0 mph3.2 kmh 30.22 in1023.4 mb 0.00 in0.0 mm 0.00 in/hr0.0 mm/hr 0.00 in0.0 mm
11:07 PM 35.4°F1.9°C 20.0°F-6.7°C 53% Calm Calm 2.0 mph3.2 kmh 30.22 in1023.4 mb 0.00 in0.0 mm 0.00 in/hr0.0 mm/hr 0.00 in0.0 mm
11:12 PM 35.2°F1.8°C 20.2°F-6.6°C 54% Calm Calm -- 30.22 in1023.4 mb 0.00 in0.0 mm 0.00 in/hr0.0 mm/hr 0.00 in0.0 mm
11:17 PM 35.1°F1.7°C 20.0°F-6.7°C 54% Calm Calm -- 30.22 in1023.4 mb 0.00 in0.0 mm 0.00 in/hr0.0 mm/hr 0.00 in0.0 mm
11:22 PM 34.9°F1.6°C 20.3°F-6.5°C 55% Calm Calm -- 30.22 in1023.4 mb 0.00 in0.0 mm 0.00 in/hr0.0 mm/hr 0.00 in0.0 mm
11:27 PM 34.7°F1.5°C 20.6°F-6.3°C 56% 1.8 mph ENE2.9 kmh ENE 1.8 mph2.9 kmh 30.22 in1023.4 mb 0.00 in0.0 mm 0.00 in/hr0.0 mm/hr 0.00 in0.0 mm
11:32 PM 34.5°F1.4°C 20.4°F-6.4°C 56% Calm Calm 1.8 mph2.9 kmh 30.22 in1023.4 mb 0.00 in0.0 mm 0.00 in/hr0.0 mm/hr 0.00 in0.0 mm
11:37 PM 34.3°F1.3°C 21.1°F-6.1°C 58% Calm Calm 1.8 mph2.9 kmh 30.22 in1023.4 mb 0.00 in0.0 mm 0.00 in/hr0.0 mm/hr 0.00 in0.0 mm
11:42 PM 34.3°F1.3°C 21.1°F-6.1°C 58% Calm Calm 0.7 mph1.1 kmh 30.22 in1023.4 mb 0.00 in0.0 mm 0.00 in/hr0.0 mm/hr 0.00 in0.0 mm
11:47 PM 34.3°F1.3°C 21.1°F-6.1°C 58% 1.5 mph ESE2.4 kmh ESE 1.6 mph2.6 kmh 30.21 in1023.0 mb 0.00 in0.0 mm 0.00 in/hr0.0 mm/hr 0.00 in0.0 mm
11:52 PM 34.3°F1.3°C 21.1°F-6.1°C 58% Calm Calm 1.6 mph2.6 kmh 30.22 in1023.4 mb 0.00 in0.0 mm 0.00 in/hr0.0 mm/hr 0.00 in0.0 mm
11:57 PM 34.3°F1.3°C 21.1°F-6.1°C 58% Calm Calm -- 30.23 in1023.7 mb 0.00 in0.0 mm 0.00 in/hr0.0 mm/hr 0.00 in0.0 mm